Airfield :
LOGIN :

Register | Disclaimer

   EN    FR    IT 

 










Legend :    VFR   Marginal VFR   IFR   Intensive IFR   Very Intensive IFR
Visi :
Ceiling :
>= 8 km
>= 3000ft
5 to 8 km
1000 to 3000 ft
1500m to 5 km
500 to 1000 ft
800 to 1500m
200 to 500 ft
< 800m
< 200 ft
Symbols :   Thunderstorms  Fog  Heavy snow  Heavy precipitations  Wind > 20 kt
SIGMETs :     Misc.  Thunderstorms  Icing  Turbulence  Mountain Waves  Volcanic Ashes






- Airport Elevation : 1367 ft
- IATA code : FDH


EDNY - Friedrichshafen

CURRENT METAR :
  • 100520Z 27005KT 240V310 9999 FEW036 OVC047 03/M01 Q1025

EXPIRED METARs :
  • 100450Z VRB02KT 9999 BKN046 03/M01 Q1025
  • 100420Z AUTO 28003KT 250V320 9999 // BKN044/// 03/M01 Q1024
  • 100350Z AUTO 30005KT 240V340 9999 // BKN040/// 04/M01 Q1023
  • 100320Z AUTO VRB02KT 9999 // FEW024/// BKN041/// BKN095/// 04/00 Q1023
  • 100250Z AUTO 31006KT 270V360 9999 // SCT024/// BKN043/// OVC067/// 04/01 Q1022

TAF TAF EDNY
Valid from the 10 at 00:00 until the 11 at 00:00 UTC


092300Z 1000/1024 24012KT 9999 BKN012
PROB30
TEMPO 1000/1003 29015G25KT SHSNRA BKN008 BKN012TCU
BECMG 1002/1004 27005KT
BECMG 1006/1008 VRB03KT BKN020



MET'MAP, your aeronautical weather chart ! - Copyright ORBIFLY December 2007 - Disclaimer

ORBIFLY MET'MAP TEAM :

Programming & Development : Alexandra Zaïnal
Concept & original design : Baudouin d'Aumeries
Assistance for programming : Marc-Olivier Méhu
Technical & hardware support : Manuel Goepfert

Contact : metmap@orbifly.com




SOURCES & CREDITS :

   NOAA